Time;durP1;ratioP1;P1;durP2;ratioP2;P2;SDS_P1;SDS_P2;PMS_P1;PMS_P2;Temp;Humidity;BMP_temperature;BMP_pressure;BME280_temperature;BME280_humidity;BME280_pressure;Samples;Min_cycle;Max_cycle;Signal;HPM_P1;HPM_P2
2022/07/02 00:00:56;;;;;;;16.70;11.97;;;;;;;36.03;43.67;101318.22;6213813;23;20418;-69
2022/07/02 00:03:48;;;;;;;32.70;14.00;;;;;;;36.06;44.30;101318.47;6214170;23;20374;-68
2022/07/02 00:06:16;;;;;;;27.93;12.30;;;;;;;36.16;43.76;101319.50;6215775;23;20348;-69
2022/07/02 00:08:43;;;;;;;29.53;13.27;;;;;;;36.41;43.51;101319.31;6213822;23;20386;-71
2022/07/02 00:11:12;;;;;;;19.97;13.63;;;;;;;36.23;44.23;101328.88;6213337;23;20402;-71
2022/07/02 00:13:39;;;;;;;28.73;13.63;;;;;;;36.32;43.93;101326.38;6213831;23;20840;-68
2022/07/02 00:16:09;;;;;;;22.00;12.63;;;;;;;36.24;43.44;101324.28;6213505;23;20434;-68
2022/07/02 00:18:37;;;;;;;19.60;11.47;;;;;;;36.19;43.77;101321.63;6213805;23;20458;-68
2022/07/02 00:21:04;;;;;;;40.70;16.50;;;;;;;35.76;43.91;101334.88;6213596;23;20431;-68
2022/07/02 00:23:30;;;;;;;19.33;10.83;;;;;;;35.55;44.22;101318.00;6215415;23;20395;-72
2022/07/02 00:26:08;;;;;;;18.63;10.90;;;;;;;35.49;44.91;101316.41;6213702;23;20376;-72
2022/07/02 00:28:41;;;;;;;35.13;12.20;;;;;;;35.78;44.56;101320.00;6188664;23;20393;-72
2022/07/02 00:31:07;;;;;;;22.20;12.03;;;;;;;36.03;43.15;101308.25;6214311;23;20343;-72
2022/07/02 00:33:37;;;;;;;26.17;11.97;;;;;;;36.03;42.33;101308.25;6215520;23;20801;-71
2022/07/02 00:36:04;;;;;;;25.93;13.80;;;;;;;36.13;42.48;101311.94;6165254;23;20407;-71
2022/07/02 00:38:31;;;;;;;22.70;11.60;;;;;;;36.17;43.74;101308.41;6213555;23;20394;-73
2022/07/02 00:40:59;;;;;;;29.90;14.20;;;;;;;36.27;43.73;101312.91;6188626;23;20418;-73
2022/07/02 00:43:27;;;;;;;35.37;15.23;;;;;;;36.44;43.70;101321.41;6214272;23;20355;-73
2022/07/02 00:45:56;;;;;;;30.20;11.17;;;;;;;36.38;43.59;101314.44;6213524;23;20918;-73
2022/07/02 00:48:23;;;;;;;38.67;15.80;;;;;;;36.39;43.94;101307.97;6215531;23;20364;-73
2022/07/02 00:50:49;;;;;;;29.17;12.63;;;;;;;36.38;43.88;101311.72;6188386;23;20823;-73
2022/07/02 00:53:15;;;;;;;22.30;13.60;;;;;;;36.46;43.15;101300.34;6213607;23;20382;-73
2022/07/02 00:55:42;;;;;;;20.93;11.97;;;;;;;36.31;43.52;101300.44;6214990;23;20374;-70
2022/07/02 00:58:08;;;;;;;23.00;11.97;;;;;;;36.36;43.21;101307.72;6213723;23;20407;-71
2022/07/02 01:00:34;;;;;;;25.80;12.33;;;;;;;36.43;43.35;101300.09;6188547;23;20419;-71
2022/07/02 01:03:01;;;;;;;15.70;10.40;;;;;;;36.40;43.15;101289.84;6213324;23;20379;-71
2022/07/02 01:05:28;;;;;;;30.00;11.60;;;;;;;36.28;43.58;101295.63;6213801;23;20399;-71
2022/07/02 01:10:52;;;;;;;18.47;11.83;;;;;;;36.42;43.54;101290.38;6213768;23;20355;-73
2022/07/02 01:13:20;;;;;;;19.73;10.80;;;;;;;36.33;43.28;101285.56;6189337;23;20878;-73
2022/07/02 01:15:46;;;;;;;30.70;14.20;;;;;;;36.42;43.26;101285.78;6219769;23;20422;-70
2022/07/02 01:18:17;;;;;;;20.00;11.60;;;;;;;36.24;43.67;101281.88;6218377;23;20404;-70
2022/07/02 01:20:46;;;;;;;21.53;13.83;;;;;;;36.43;43.57;101290.09;6218109;23;20422;-70
2022/07/02 01:23:12;;;;;;;29.17;17.07;;;;;;;36.45;43.51;101287.09;6218363;23;20386;-70
2022/07/02 01:25:38;;;;;;;18.97;12.10;;;;;;;36.39;43.24;101280.09;6218092;23;20386;-70
2022/07/02 01:28:05;;;;;;;19.90;10.70;;;;;;;36.34;42.90;101275.59;6193365;23;20765;-70
2022/07/02 01:30:31;;;;;;;17.60;10.47;;;;;;;36.40;42.81;101271.78;6218775;23;20826;-70
2022/07/02 01:32:57;;;;;;;30.93;13.50;;;;;;;36.42;42.35;101271.47;6193419;23;20371;-71
2022/07/02 01:35:23;;;;;;;22.63;12.40;;;;;;;36.40;43.40;101269.06;6193240;23;20382;-72
2022/07/02 01:37:50;;;;;;;22.90;11.93;;;;;;;36.36;43.36;101264.47;6218108;23;20370;-73
2022/07/02 01:40:16;;;;;;;25.93;13.20;;;;;;;36.28;43.55;101260.50;6193461;23;20806;-73
2022/07/02 01:42:42;;;;;;;29.97;13.53;;;;;;;36.06;43.52;101269.88;6218087;23;20389;-73
2022/07/02 01:45:08;;;;;;;26.53;11.40;;;;;;;36.20;43.44;101259.22;6219224;23;20412;-73
2022/07/02 01:47:35;;;;;;;27.80;11.13;;;;;;;36.20;43.13;101256.50;6218107;23;20389;-72
2022/07/02 01:50:01;;;;;;;21.40;14.60;;;;;;;36.16;43.06;101252.00;6193116;23;20415;-73
2022/07/02 01:52:27;;;;;;;22.73;13.40;;;;;;;36.01;42.95;101255.63;6218095;23;20402;-73
2022/07/02 01:54:53;;;;;;;19.47;11.17;;;;;;;35.92;43.53;101254.63;6218070;23;20492;-71
2022/07/02 01:57:20;;;;;;;26.03;12.43;;;;;;;35.93;43.81;101253.53;6245593;23;20356;-71
2022/07/02 01:59:46;;;;;;;24.20;13.93;;;;;;;35.87;43.29;101233.03;6245182;23;20461;-71
2022/07/02 02:02:12;;;;;;;24.17;12.10;;;;;;;35.83;43.20;101232.78;6217978;23;20386;-71
2022/07/02 02:04:39;;;;;;;19.23;12.03;;;;;;;36.00;43.34;101227.81;6218091;23;20417;-71
2022/07/02 02:07:05;;;;;;;22.87;11.77;;;;;;;35.94;43.35;101234.34;6217987;23;20496;-73
2022/07/02 02:09:32;;;;;;;24.93;13.17;;;;;;;35.72;44.11;101233.94;6245419;23;20339;-73
2022/07/02 02:11:59;;;;;;;31.87;13.77;;;;;;;35.77;43.65;101225.81;6218091;23;20384;-73
2022/07/02 02:14:25;;;;;;;22.70;12.57;;;;;;;35.86;43.50;101226.03;6245097;23;20355;-71
2022/07/02 02:16:52;;;;;;;25.30;15.53;;;;;;;35.84;43.43;101223.59;6220675;23;20564;-71
2022/07/02 02:19:18;;;;;;;31.43;13.10;;;;;;;35.86;43.12;101226.84;6217866;23;20422;-71
2022/07/02 02:21:44;;;;;;;26.10;14.67;;;;;;;35.93;42.86;101221.13;6217716;23;20429;-71
2022/07/02 02:24:10;;;;;;;22.27;12.20;;;;;;;35.89;43.16;101231.66;6217995;23;20401;-70
2022/07/02 02:26:36;;;;;;;17.53;10.40;;;;;;;35.83;43.50;101235.47;6217890;23;20485;-72
2022/07/02 02:29:02;;;;;;;19.67;11.60;;;;;;;35.91;43.50;101236.75;6245414;23;20379;-71
2022/07/02 02:31:28;;;;;;;17.00;10.87;;;;;;;36.08;42.75;101228.28;6245113;23;20347;-69
2022/07/02 02:33:55;;;;;;;23.90;13.37;;;;;;;36.03;43.48;101227.25;6246860;23;20351;-70
2022/07/02 02:36:21;;;;;;;28.50;12.13;;;;;;;36.16;42.92;101235.78;6219901;23;20367;-72
2022/07/02 02:38:48;;;;;;;25.47;12.40;;;;;;;36.17;43.51;101229.28;6219675;23;20726;-73
2022/07/02 02:41:15;;;;;;;31.70;14.13;;;;;;;36.20;43.57;101232.19;6247170;23;20485;-73
2022/07/02 02:43:41;;;;;;;23.57;11.57;;;;;;;36.33;43.18;101231.53;6220184;23;20834;-70
2022/07/02 02:46:07;;;;;;;18.03;12.30;;;;;;;36.27;42.79;101234.56;6194829;23;20713;-71
2022/07/02 02:48:36;;;;;;;20.40;13.13;;;;;;;36.32;43.10;101234.53;6194933;23;20972;-73
2022/07/02 02:51:04;;;;;;;30.37;12.77;;;;;;;36.25;43.33;101234.84;6170330;23;20366;-73
2022/07/02 02:53:31;;;;;;;20.87;11.50;;;;;;;36.19;44.00;101235.19;6194692;23;20375;-70
2022/07/02 02:56:00;;;;;;;19.40;11.17;;;;;;;36.04;43.34;101230.75;6246753;23;20434;-70
2022/07/02 02:58:28;;;;;;;28.77;11.57;;;;;;;36.06;43.10;101237.47;6219596;23;20413;-70
2022/07/02 03:00:55;;;;;;;26.73;12.60;;;;;;;36.10;43.51;101237.72;6219572;23;20406;-70
2022/07/02 03:03:21;;;;;;;25.23;11.03;;;;;;;36.18;43.15;101237.09;6246688;23;20366;-70
2022/07/02 03:05:47;;;;;;;20.47;11.43;;;;;;;36.13;42.98;101244.44;6246300;23;20375;-71
2022/07/02 03:08:13;;;;;;;33.37;14.40;;;;;;;36.14;43.10;101237.94;6194561;23;20375;-70
2022/07/02 03:10:40;;;;;;;22.50;12.87;;;;;;;36.25;43.02;101242.16;6219358;23;20393;-70
2022/07/02 03:13:06;;;;;;;26.53;12.57;;;;;;;36.34;42.65;101243.16;6219472;23;20450;-71
2022/07/02 03:15:32;;;;;;;25.30;13.63;;;;;;;36.18;42.93;101239.78;6219631;23;20410;-70
2022/07/02 03:17:58;;;;;;;20.93;13.13;;;;;;;36.26;42.93;101241.88;6214203;23;21018;-73
2022/07/02 03:20:25;;;;;;;24.00;11.93;;;;;;;36.30;43.39;101236.72;6214217;23;20516;-73
2022/07/02 03:22:51;;;;;;;22.50;13.47;;;;;;;36.22;43.42;101238.16;6214289;23;20818;-71
2022/07/02 03:25:17;;;;;;;25.90;11.30;;;;;;;36.18;43.46;101244.41;6214287;23;20892;-73
2022/07/02 03:27:43;;;;;;;24.57;12.53;;;;;;;36.29;43.20;101233.22;6214171;23;20376;-73
2022/07/02 03:30:10;;;;;;;20.77;11.30;;;;;;;36.28;43.81;101245.09;6216364;23;20351;-71
2022/07/02 03:32:36;;;;;;;24.03;14.00;;;;;;;36.07;44.70;101240.97;6189349;23;20848;-70
2022/07/02 03:35:02;;;;;;;25.83;12.30;;;;;;;36.15;43.72;101239.53;6214170;23;20732;-73
2022/07/02 03:37:28;;;;;;;19.70;13.40;;;;;;;36.19;44.10;101246.81;6216245;23;20360;-73
2022/07/02 03:39:55;;;;;;;26.90;15.20;;;;;;;35.99;43.75;101255.09;6215962;23;20407;-73
2022/07/02 03:42:22;;;;;;;29.40;12.03;;;;;;;36.03;43.65;101258.81;6214195;23;20410;-71
2022/07/02 03:44:49;;;;;;;36.63;11.70;;;;;;;36.21;43.80;101263.53;6214074;23;20410;-72
2022/07/02 03:47:15;;;;;;;39.33;15.07;;;;;;;36.24;44.08;101265.66;6214330;23;20467;-71
2022/07/02 03:49:42;;;;;;;36.40;15.97;;;;;;;36.32;43.55;101267.75;6214137;23;20406;-71
2022/07/02 03:52:08;;;;;;;23.13;13.67;;;;;;;36.22;43.48;101267.06;6214327;23;20384;-71
2022/07/02 03:54:34;;;;;;;26.93;16.83;;;;;;;36.12;43.88;101277.94;6214047;23;20379;-73
2022/07/02 03:57:00;;;;;;;46.47;15.03;;;;;;;36.13;42.98;101274.16;6213788;23;20377;-73
2022/07/02 03:59:26;;;;;;;32.40;13.20;;;;;;;36.10;43.05;101270.13;6215937;23;20435;-70
2022/07/02 04:01:52;;;;;;;26.90;13.63;;;;;;;36.04;42.78;101282.88;6216036;23;20362;-71
2022/07/02 04:04:19;;;;;;;25.90;11.57;;;;;;;36.01;42.89;101271.81;6215641;23;20359;-73
2022/07/02 04:06:46;;;;;;;32.00;12.33;;;;;;;36.06;43.01;101277.97;6215876;23;20354;-73
2022/07/02 04:09:13;;;;;;;30.47;13.53;;;;;;;36.01;43.04;101277.22;6213833;23;20380;-70
2022/07/02 04:11:39;;;;;;;25.33;14.73;;;;;;;35.87;43.92;101285.13;6213912;23;20383;-70
2022/07/02 04:14:05;;;;;;;21.13;13.57;;;;;;;36.03;43.26;101281.25;6214360;23;20374;-73
2022/07/02 04:16:31;;;;;;;35.10;14.87;;;;;;;36.00;43.91;101279.09;6213550;23;20443;-73
2022/07/02 04:18:57;;;;;;;23.20;13.93;;;;;;;36.00;43.85;101279.09;6213804;23;20371;-73
2022/07/02 04:21:24;;;;;;;24.57;12.90;;;;;;;36.10;43.65;101286.34;6213576;23;20374;-73
2022/07/02 04:23:50;;;;;;;18.97;12.67;;;;;;;36.10;43.08;101280.13;6213962;23;20732;-73
2022/07/02 04:26:16;;;;;;;20.40;13.17;;;;;;;36.14;43.49;101275.75;6213840;23;20870;-73
2022/07/02 04:28:42;;;;;;;26.43;13.07;;;;;;;36.18;43.68;101290.31;6215605;23;20907;-73
2022/07/02 04:31:08;;;;;;;25.60;13.47;;;;;;;36.21;44.21;101295.13;6213743;23;20442;-70
2022/07/02 04:33:35;;;;;;;23.20;13.50;;;;;;;36.16;43.87;101293.31;6213636;23;20402;-70
2022/07/02 04:36:01;;;;;;;19.60;12.87;;;;;;;36.24;43.67;101297.28;6213702;23;20372;-71
2022/07/02 04:38:27;;;;;;;25.73;14.60;;;;;;;36.16;43.90;101298.69;6213591;23;20866;-71
2022/07/02 04:40:53;;;;;;;28.50;14.70;;;;;;;36.17;43.70;101294.09;6213424;23;20415;-70
2022/07/02 04:43:19;;;;;;;25.93;15.50;;;;;;;36.25;43.73;101301.59;6213557;23;20912;-72
2022/07/02 04:45:45;;;;;;;20.80;13.93;;;;;;;36.30;42.78;101301.53;6213540;23;20421;-73
2022/07/02 04:48:11;;;;;;;32.67;13.13;;;;;;;36.25;43.48;101299.69;6215634;23;20359;-73
2022/07/02 04:50:37;;;;;;;28.37;14.87;;;;;;;36.29;43.20;101313.44;6213531;23;20367;-73
2022/07/02 04:53:04;;;;;;;22.53;13.60;;;;;;;36.23;42.77;101299.16;6213487;23;20368;-71
2022/07/02 04:55:30;;;;;;;23.37;12.47;;;;;;;36.20;42.83;101307.03;6213535;23;20934;-71
2022/07/02 04:57:56;;;;;;;23.00;12.70;;;;;;;36.22;43.13;101308.38;6213469;23;20375;-71
2022/07/02 05:00:22;;;;;;;27.37;11.20;;;;;;;36.17;43.27;101302.19;6213343;23;20490;-70
2022/07/02 05:02:48;;;;;;;18.80;11.63;;;;;;;35.96;43.14;101318.56;6213477;23;20380;-72
2022/07/02 05:05:14;;;;;;;24.37;12.73;;;;;;;35.79;44.58;101315.44;6213486;23;20410;-72
2022/07/02 05:07:41;;;;;;;26.57;12.20;;;;;;;35.72;44.79;101318.41;6163763;23;20363;-70
2022/07/02 05:10:07;;;;;;;24.43;15.30;;;;;;;35.46;45.85;101319.66;6188519;23;20421;-71
2022/07/02 05:12:33;;;;;;;26.20;14.90;;;;;;;35.58;45.56;101325.53;6215233;23;20421;-73
2022/07/02 05:14:59;;;;;;;20.17;13.70;;;;;;;35.43;45.74;101322.94;6188354;23;20461;-72
2022/07/02 05:17:25;;;;;;;26.43;13.33;;;;;;;35.55;45.93;101323.41;6236758;23;20430;-70
2022/07/02 05:19:52;;;;;;;28.33;14.10;;;;;;;35.68;46.04;101319.28;6218312;23;20501;-70
2022/07/02 05:22:18;;;;;;;27.40;14.70;;;;;;;35.37;46.48;101316.72;6245508;23;20351;-70
2022/07/02 05:24:44;;;;;;;31.60;14.63;;;;;;;35.54;46.12;101321.75;6218138;23;20413;-72
2022/07/02 05:27:10;;;;;;;40.47;15.77;;;;;;;35.70;44.95;101325.19;6218188;23;20389;-72
2022/07/02 05:29:36;;;;;;;21.13;12.80;;;;;;;35.62;44.04;101334.69;6218125;23;20699;-70
2022/07/02 05:32:02;;;;;;;23.47;10.53;;;;;;;35.81;43.94;101329.44;6244992;23;20835;-71
2022/07/02 05:34:29;;;;;;;27.50;13.87;;;;;;;35.87;44.18;101328.31;6218168;23;20398;-70
2022/07/02 05:36:55;;;;;;;23.17;13.20;;;;;;;35.71;44.53;101334.88;6245430;23;20358;-70
2022/07/02 05:39:21;;;;;;;26.70;12.37;;;;;;;35.54;44.62;101337.94;6245533;23;20434;-71
2022/07/02 05:41:47;;;;;;;21.50;12.70;;;;;;;35.58;43.66;101343.59;6245250;23;20362;-70
2022/07/02 05:44:13;;;;;;;22.80;14.63;;;;;;;35.65;43.92;101346.81;6217993;23;20861;-71
2022/07/02 05:46:40;;;;;;;26.43;12.90;;;;;;;35.52;44.03;101349.03;6217710;23;20379;-70
2022/07/02 05:49:06;;;;;;;32.63;14.37;;;;;;;35.67;44.25;101352.75;6217925;23;20456;-69
2022/07/02 05:51:32;;;;;;;24.53;13.00;;;;;;;35.69;44.47;101350.56;6192945;23;20378;-69
2022/07/02 05:53:58;;;;;;;29.27;18.93;;;;;;;35.68;45.00;101355.16;6192783;23;20385;-68
2022/07/02 05:56:24;;;;;;;26.67;13.10;;;;;;;35.76;45.06;101362.66;6193001;23;20489;-69
2022/07/02 05:58:50;;;;;;;28.67;15.23;;;;;;;35.83;44.95;101362.34;6193106;23;20378;-69
2022/07/02 06:01:16;;;;;;;21.60;13.07;;;;;;;35.89;44.79;101365.81;6217611;23;20475;-69
2022/07/02 06:03:43;;;;;;;22.00;14.30;;;;;;;35.96;44.32;101369.03;6192902;23;20402;-69
2022/07/02 06:08:53;;;;;;;24.90;12.73;;;;;;;35.92;44.26;101371.53;6245871;23;20424;-69
2022/07/02 06:11:19;;;;;;;26.30;14.63;;;;;;;35.83;44.24;101375.84;6219674;23;20377;-70
2022/07/02 06:13:46;;;;;;;18.63;12.67;;;;;;;35.77;43.33;101379.66;6219760;23;20381;-70
2022/07/02 06:16:12;;;;;;;21.40;14.00;;;;;;;35.88;43.82;101386.63;6246628;22;20429;-70
2022/07/02 06:18:38;;;;;;;26.37;13.70;;;;;;;35.76;44.58;101394.25;6219537;23;20378;-70
2022/07/02 06:21:04;;;;;;;26.93;14.90;;;;;;;35.24;45.65;101388.25;6219410;23;20487;-70
2022/07/02 06:23:30;;;;;;;26.40;12.10;;;;;;;35.02;46.68;101395.03;6219369;23;20436;-72
2022/07/02 06:25:56;;;;;;;28.30;14.63;;;;;;;34.73;47.25;101398.28;6219799;23;20385;-72
2022/07/02 06:28:23;;;;;;;29.33;14.50;;;;;;;34.89;47.35;101405.28;6219721;23;20378;-72
2022/07/02 06:30:50;;;;;;;36.40;16.53;;;;;;;34.71;47.71;101411.22;6219751;23;20462;-72
2022/07/02 06:33:16;;;;;;;19.73;16.30;;;;;;;34.95;46.92;101406.91;6219812;23;20387;-72
2022/07/02 06:35:43;;;;;;;30.17;15.70;;;;;;;34.96;47.32;101424.69;6219559;23;20800;-69
2022/07/02 06:38:09;;;;;;;28.53;15.30;;;;;;;35.12;47.28;101427.38;6219804;23;20425;-70
2022/07/02 06:40:35;;;;;;;29.60;13.50;;;;;;;35.05;47.39;101424.13;6219707;23;20505;-72
2022/07/02 06:43:01;;;;;;;36.10;16.50;;;;;;;35.09;45.31;101425.22;6219511;23;20429;-72
2022/07/02 06:45:28;;;;;;;19.20;13.47;;;;;;;35.10;45.06;101429.53;6219469;23;20768;-69
2022/07/02 06:47:54;;;;;;;23.60;14.27;;;;;;;35.27;44.57;101440.81;6219746;23;20405;-69
2022/07/02 06:50:20;;;;;;;31.23;17.70;;;;;;;35.20;45.70;101443.00;6219615;23;20371;-70
2022/07/02 06:52:47;;;;;;;26.40;14.30;;;;;;;35.26;46.70;101450.00;6219640;23;20379;-72
2022/07/02 06:55:13;;;;;;;22.20;15.13;;;;;;;35.20;46.59;101451.91;6246831;23;20452;-72
2022/07/02 06:57:39;;;;;;;26.67;12.77;;;;;;;35.36;46.71;101444.59;6219597;23;20377;-72
2022/07/02 07:00:07;;;;;;;23.57;13.93;;;;;;;35.43;46.64;101455.13;6219641;23;20503;-72
2022/07/02 07:02:33;;;;;;;36.43;15.00;;;;;;;35.48;46.61;101457.78;6219473;23;20414;-72
2022/07/02 07:04:59;;;;;;;35.40;13.63;;;;;;;35.15;45.10;101461.88;6219486;23;20397;-72
2022/07/02 07:07:27;;;;;;;51.03;16.40;;;;;;;35.19;45.81;101482.66;6219211;23;20398;-71
2022/07/02 07:09:55;;;;;;;32.40;15.33;;;;;;;35.28;45.56;101474.78;6219551;23;20768;-71
2022/07/02 07:12:21;;;;;;;21.10;13.80;;;;;;;35.33;45.68;101472.09;6219884;23;20449;-72
2022/07/02 07:14:47;;;;;;;19.67;13.53;;;;;;;35.35;46.10;101480.72;6219358;22;20465;-72
2022/07/02 07:17:14;;;;;;;18.80;13.77;;;;;;;35.27;45.85;101483.97;6189527;23;20514;-70
2022/07/02 07:19:40;;;;;;;25.80;13.77;;;;;;;35.23;45.75;101488.28;6215879;23;20407;-70
2022/07/02 07:22:06;;;;;;;22.77;13.07;;;;;;;35.39;45.48;101489.88;6189471;23;20382;-70
2022/07/02 07:24:32;;;;;;;19.53;11.70;;;;;;;35.47;44.74;101493.94;6216091;23;20391;-69
2022/07/02 07:26:58;;;;;;;20.37;12.43;;;;;;;35.30;43.52;101490.69;6189337;23;20859;-69
2022/07/02 07:29:24;;;;;;;21.67;12.40;;;;;;;35.35;44.23;101501.47;6214365;23;20466;-69
2022/07/02 07:31:51;;;;;;;18.43;12.20;;;;;;;35.35;44.58;101496.09;6214002;23;20414;-72
2022/07/02 07:34:17;;;;;;;27.00;15.10;;;;;;;35.37;45.12;101502.03;6216285;23;20466;-72
2022/07/02 07:36:43;;;;;;;28.27;13.70;;;;;;;35.49;45.30;101497.19;6214185;23;20379;-72
2022/07/02 07:39:09;;;;;;;17.60;10.83;;;;;;;35.53;44.72;101496.34;6213758;23;20844;-72
2022/07/02 07:41:36;;;;;;;24.13;13.70;;;;;;;35.63;44.78;101500.91;6214210;23;20779;-72
2022/07/02 07:44:03;;;;;;;20.13;12.53;;;;;;;35.62;44.73;101495.78;6214040;23;20856;-70
2022/07/02 07:46:29;;;;;;;23.23;13.53;;;;;;;35.61;44.92;101495.00;6214160;23;20402;-71
2022/07/02 07:48:58;;;;;;;21.43;11.90;;;;;;;35.70;44.81;101500.63;6216095;23;20435;-70
2022/07/02 07:51:24;;;;;;;24.67;12.73;;;;;;;35.68;44.82;101495.50;6189710;23;20375;-70
2022/07/02 07:53:51;;;;;;;25.17;13.50;;;;;;;35.78;44.79;101502.72;6214028;23;20383;-70
2022/07/02 07:56:19;;;;;;;21.70;13.30;;;;;;;35.83;44.32;101505.41;6215941;23;20356;-70
2022/07/02 07:58:46;;;;;;;20.63;12.00;;;;;;;35.86;44.58;101506.78;6213982;23;20785;-72
2022/07/02 08:01:13;;;;;;;29.70;13.40;;;;;;;35.89;44.60;101506.22;6213848;23;20488;-69
2022/07/02 08:03:39;;;;;;;27.20;13.33;;;;;;;35.94;44.83;101511.63;6214102;23;20526;-70
2022/07/02 08:06:06;;;;;;;23.73;13.47;;;;;;;35.82;44.88;101511.91;6213994;23;20713;-69
2022/07/02 08:08:32;;;;;;;25.17;16.57;;;;;;;35.43;45.86;101525.25;6213818;23;20410;-72
2022/07/02 08:10:58;;;;;;;36.83;16.67;;;;;;;34.94;47.01;101528.50;6214032;23;20431;-71
2022/07/02 08:13:24;;;;;;;22.60;17.90;;;;;;;35.09;47.40;101527.69;6213843;23;20410;-71
2022/07/02 08:15:50;;;;;;;29.83;17.60;;;;;;;35.21;47.00;101522.81;6215605;23;20450;-69
2022/07/02 08:18:16;;;;;;;31.40;16.83;;;;;;;35.39;46.99;101533.03;6218741;23;20378;-72
2022/07/02 08:20:42;;;;;;;23.87;15.60;;;;;;;35.37;46.32;101515.53;6217927;23;20778;-70
2022/07/02 08:23:09;;;;;;;21.77;15.07;;;;;;;35.36;46.56;101519.28;6218571;23;20410;-69
2022/07/02 08:25:35;;;;;;;21.33;13.90;;;;;;;35.38;46.15;101520.66;6219335;23;20358;-69
2022/07/02 08:28:01;;;;;;;33.63;17.40;;;;;;;35.40;46.19;101514.97;6245780;23;20383;-69
2022/07/02 08:30:27;;;;;;;28.60;17.13;;;;;;;35.43;46.55;101515.28;6245405;23;20530;-70
2022/07/02 08:32:53;;;;;;;31.90;18.20;;;;;;;35.58;46.45;101510.91;6218265;23;20385;-70
2022/07/02 08:35:19;;;;;;;23.53;14.30;;;;;;;35.44;46.70;101516.88;6218331;23;20381;-70
2022/07/02 08:37:46;;;;;;;23.80;14.70;;;;;;;35.52;46.21;101510.91;6218437;23;20367;-70
2022/07/02 08:40:12;;;;;;;25.50;15.27;;;;;;;35.66;45.87;101508.44;6218423;23;20442;-69
2022/07/02 08:42:41;;;;;;;29.40;18.40;;;;;;;35.77;46.48;101515.44;6245839;23;20355;-70
2022/07/02 08:45:09;;;;;;;25.90;17.03;;;;;;;35.82;46.46;101522.72;6245774;23;20347;-70
2022/07/02 08:47:36;;;;;;;32.77;16.87;;;;;;;35.74;46.10;101520.59;6218411;23;20692;-70
2022/07/02 08:50:03;;;;;;;24.23;17.37;;;;;;;35.91;45.95;101522.94;6218297;23;20403;-70
2022/07/02 08:52:29;;;;;;;19.87;15.13;;;;;;;35.99;46.47;101522.41;6218439;23;20386;-71
2022/07/02 08:54:56;;;;;;;26.93;18.60;;;;;;;35.94;45.59;101523.22;6219486;23;20386;-70
2022/07/02 08:57:23;;;;;;;19.03;13.63;;;;;;;36.04;45.58;101525.91;6218298;23;20406;-71
2022/07/02 08:59:49;;;;;;;20.07;14.93;;;;;;;36.16;44.62;101516.66;6218380;23;20417;-70
2022/07/02 09:02:18;;;;;;;21.27;16.67;;;;;;;35.98;45.63;101513.50;6218261;23;20382;-70
2022/07/02 09:04:49;;;;;;;25.17;14.30;;;;;;;35.97;45.79;101516.47;6245484;23;20957;-72
2022/07/02 09:07:17;;;;;;;19.77;14.33;;;;;;;36.20;44.97;101509.59;6245714;23;20378;-72
2022/07/02 09:09:45;;;;;;;20.47;14.50;;;;;;;36.23;45.10;101509.06;6215142;23;20433;-71
2022/07/02 09:12:15;;;;;;;23.13;15.20;;;;;;;36.31;45.38;101511.97;6217779;23;20464;-71
2022/07/02 09:14:43;;;;;;;29.60;13.83;;;;;;;36.31;44.11;101513.88;6218424;22;20386;-73
2022/07/02 09:17:11;;;;;;;31.03;14.27;;;;;;;36.33;44.94;101517.09;6216653;23;20517;-71
2022/07/02 09:19:39;;;;;;;22.70;13.43;;;;;;;36.40;44.66;101516.81;6244793;23;20402;-70
2022/07/02 09:22:06;;;;;;;27.77;17.80;;;;;;;36.41;44.19;101510.34;6217732;23;20398;-71
2022/07/02 09:24:39;;;;;;;32.17;15.53;;;;;;;36.41;44.42;101508.44;6245397;23;20351;-71
2022/07/02 09:27:10;;;;;;;24.40;15.83;;;;;;;36.09;44.39;101510.72;6193773;23;20398;-71
2022/07/02 09:29:47;;;;;;;22.13;13.70;;;;;;;36.04;45.27;101511.59;6217860;23;20490;-71
2022/07/02 09:32:14;;;;;;;21.93;14.27;;;;;;;35.83;45.54;101508.13;6217156;23;20474;-71
2022/07/02 09:34:46;;;;;;;21.57;15.70;;;;;;;36.04;45.09;101507.00;6217676;23;20461;-70
2022/07/02 09:37:14;;;;;;;24.60;16.67;;;;;;;36.15;44.81;101510.44;6244888;23;20358;-70
2022/07/02 09:39:43;;;;;;;23.37;14.13;;;;;;;36.30;44.69;101501.44;6217623;23;20961;-70
2022/07/02 09:42:10;;;;;;;24.13;12.80;;;;;;;36.42;44.64;101506.53;6218247;23;20386;-70
2022/07/02 09:44:46;;;;;;;28.17;15.10;;;;;;;36.57;44.69;101506.41;6220096;23;20382;-71
2022/07/02 09:47:12;;;;;;;21.00;14.20;;;;;;;36.44;44.11;101507.06;6246976;23;20386;-70
2022/07/02 09:49:51;;;;;;;24.70;14.77;;;;;;;36.46;44.10;101500.31;6220036;23;20408;-70
2022/07/02 09:52:18;;;;;;;20.70;13.80;;;;;;;36.40;44.51;101512.22;6247145;23;20861;-70
2022/07/02 09:54:45;;;;;;;25.90;13.77;;;;;;;36.48;44.87;101505.41;6247224;23;20382;-70
2022/07/02 09:57:13;;;;;;;31.70;14.83;;;;;;;36.51;44.93;101513.75;6219596;23;20401;-70
2022/07/02 09:59:40;;;;;;;22.00;13.27;;;;;;;36.43;44.88;101511.66;6195114;23;20505;-70
2022/07/02 10:02:29;;;;;;;24.33;15.43;;;;;;;36.49;45.02;101510.53;6247165;23;20753;-73
2022/07/02 10:04:57;;;;;;;21.63;11.73;;;;;;;36.62;44.48;101514.50;6247587;23;20354;-72
2022/07/02 10:07:24;;;;;;;20.37;14.73;;;;;;;36.69;44.79;101512.28;6219697;23;20428;-70
2022/07/02 10:09:51;;;;;;;24.73;14.00;;;;;;;36.43;45.05;101506.25;6246009;23;20351;-73
2022/07/02 10:12:19;;;;;;;27.97;15.60;;;;;;;36.65;44.65;101503.13;6219793;23;20371;-73
2022/07/02 10:14:46;;;;;;;21.70;15.87;;;;;;;36.64;44.29;101501.50;6219826;22;20377;-71
2022/07/02 10:17:15;;;;;;;29.10;17.00;;;;;;;36.78;44.74;101504.38;6219664;23;20433;-71
2022/07/02 10:19:42;;;;;;;26.03;15.80;;;;;;;36.59;44.41;101501.56;6247074;23;20468;-71
2022/07/02 10:22:09;;;;;;;25.90;14.53;;;;;;;36.56;44.88;101496.69;6219818;23;20410;-70
2022/07/02 10:24:36;;;;;;;25.13;17.67;;;;;;;36.70;44.75;101499.56;6219876;23;20384;-71
2022/07/02 10:27:03;;;;;;;22.30;14.60;;;;;;;36.56;44.69;101497.50;6219672;23;20855;-70
2022/07/02 10:29:30;;;;;;;26.83;15.60;;;;;;;36.42;44.56;101503.84;6194008;23;20375;-71
2022/07/02 10:32:28;;;;;;;31.17;15.83;;;;;;;36.58;44.53;101500.72;6219633;23;20430;-70
2022/07/02 10:35:07;;;;;;;24.60;13.73;;;;;;;36.73;43.87;101496.31;6206341;23;20866;-70
2022/07/02 10:37:33;;;;;;;21.70;13.47;;;;;;;36.79;43.93;101497.88;6219368;23;20393;-73
2022/07/02 10:40:02;;;;;;;22.07;13.10;;;;;;;36.86;43.65;101495.66;6219130;23;20514;-73
2022/07/02 10:42:44;;;;;;;28.50;15.27;;;;;;;36.79;43.31;101495.19;6220403;23;20342;-70
2022/07/02 10:45:14;;;;;;;23.63;14.47;;;;;;;36.94;42.86;101489.66;6194958;23;20383;-72
2022/07/02 10:47:59;;;;;;;24.07;13.40;;;;;;;36.99;41.83;101486.91;6219485;23;20402;-72
2022/07/02 10:50:46;;;;;;;22.00;13.37;;;;;;;36.85;42.63;101497.56;6219262;23;20382;-72
2022/07/02 10:53:17;;;;;;;22.23;14.77;;;;;;;36.89;42.29;101494.31;6246653;23;20367;-72
2022/07/02 10:55:44;;;;;;;25.63;12.63;;;;;;;36.89;42.52;101495.09;6218877;23;20382;-70
2022/07/02 10:58:26;;;;;;;25.17;13.13;;;;;;;36.85;42.53;101497.56;6219443;23;20413;-70
2022/07/02 11:00:53;;;;;;;19.83;12.47;;;;;;;37.00;42.39;101498.53;6219715;23;20414;-70
2022/07/02 11:03:21;;;;;;;21.50;14.17;;;;;;;37.11;41.92;101489.25;6246228;23;20366;-70
2022/07/02 11:05:54;;;;;;;23.30;11.73;;;;;;;37.16;41.48;101491.09;6219313;23;20375;-70
2022/07/02 11:08:39;;;;;;;21.67;12.17;;;;;;;37.03;41.44;101485.25;6195203;23;20385;-70
2022/07/02 11:11:06;;;;;;;20.97;14.60;;;;;;;37.07;41.86;101480.06;6246655;23;20362;-70
2022/07/02 11:13:49;;;;;;;18.33;12.97;;;;;;;37.12;41.13;101475.41;6246291;23;20362;-72
2022/07/02 11:16:21;;;;;;;20.87;10.67;;;;;;;36.95;41.60;101469.63;6218934;23;20931;-72